sensor_id;sensor_type;location;lat;lon;timestamp;pressure;altitude;pressure_sealevel;temperature;humidity
47530;BME280;33272;51.922;7.730;2022-09-25T00:00:40;100631.94;;;13.72;100.00
47530;BME280;33272;51.922;7.730;2022-09-25T00:03:09;100629.28;;;13.70;100.00
47530;BME280;33272;51.922;7.730;2022-09-25T00:05:36;100635.22;;;13.69;100.00
47530;BME280;33272;51.922;7.730;2022-09-25T00:08:05;100630.97;;;13.70;100.00
47530;BME280;33272;51.922;7.730;2022-09-25T00:10:33;100632.66;;;13.69;100.00
47530;BME280;33272;51.922;7.730;2022-09-25T00:13:00;100629.97;;;13.67;100.00
47530;BME280;33272;51.922;7.730;2022-09-25T00:15:27;100639.38;;;13.67;100.00
47530;BME280;33272;51.922;7.730;2022-09-25T00:17:54;100637.50;;;13.64;100.00
47530;BME280;33272;51.922;7.730;2022-09-25T00:20:21;100636.72;;;13.65;100.00
47530;BME280;33272;51.922;7.730;2022-09-25T00:22:49;100639.13;;;13.62;100.00
47530;BME280;33272;51.922;7.730;2022-09-25T00:25:19;100632.91;;;13.59;100.00
47530;BME280;33272;51.922;7.730;2022-09-25T00:27:46;100631.81;;;13.55;100.00
47530;BME280;33272;51.922;7.730;2022-09-25T00:30:15;100633.50;;;13.55;100.00
47530;BME280;33272;51.922;7.730;2022-09-25T00:32:44;100629.97;;;13.53;100.00
47530;BME280;33272;51.922;7.730;2022-09-25T00:35:12;100638.44;;;13.52;100.00
47530;BME280;33272;51.922;7.730;2022-09-25T00:37:39;100628.88;;;13.49;100.00
47530;BME280;33272;51.922;7.730;2022-09-25T00:40:07;100626.09;;;13.46;100.00
47530;BME280;33272;51.922;7.730;2022-09-25T00:42:36;100626.84;;;13.43;100.00
47530;BME280;33272;51.922;7.730;2022-09-25T00:45:05;100627.59;;;13.42;100.00
47530;BME280;33272;51.922;7.730;2022-09-25T00:47:44;100628.22;;;13.38;100.00
47530;BME280;33272;51.922;7.730;2022-09-25T00:50:28;100634.25;;;13.39;100.00
47530;BME280;33272;51.922;7.730;2022-09-25T00:53:02;100637.88;;;13.42;100.00
47530;BME280;33272;51.922;7.730;2022-09-25T00:55:32;100638.81;;;13.43;100.00
47530;BME280;33272;51.922;7.730;2022-09-25T00:58:02;100637.50;;;13.36;100.00
47530;BME280;33272;51.922;7.730;2022-09-25T01:00:31;100646.22;;;13.38;100.00
47530;BME280;33272;51.922;7.730;2022-09-25T01:02:59;100652.16;;;13.37;100.00
47530;BME280;33272;51.922;7.730;2022-09-25T01:05:30;100645.41;;;13.39;100.00
47530;BME280;33272;51.922;7.730;2022-09-25T01:08:00;100644.53;;;13.39;100.00
47530;BME280;33272;51.922;7.730;2022-09-25T01:10:29;100647.22;;;13.40;100.00
47530;BME280;33272;51.922;7.730;2022-09-25T01:12:57;100654.03;;;13.40;100.00
47530;BME280;33272;51.922;7.730;2022-09-25T01:15:35;100656.63;;;13.40;100.00
47530;BME280;33272;51.922;7.730;2022-09-25T01:18:16;100652.25;;;13.39;100.00
47530;BME280;33272;51.922;7.730;2022-09-25T01:21:13;100645.41;;;13.39;100.00
47530;BME280;33272;51.922;7.730;2022-09-25T01:24:03;100655.81;;;13.41;100.00
47530;BME280;33272;51.922;7.730;2022-09-25T01:29:47;100638.50;;;13.38;100.00
47530;BME280;33272;51.922;7.730;2022-09-25T01:32:21;100642.41;;;13.32;100.00
47530;BME280;33272;51.922;7.730;2022-09-25T01:34:58;100642.41;;;13.32;100.00
47530;BME280;33272;51.922;7.730;2022-09-25T01:37:35;100644.84;;;13.30;100.00
47530;BME280;33272;51.922;7.730;2022-09-25T01:40:10;100642.09;;;13.27;100.00
47530;BME280;33272;51.922;7.730;2022-09-25T01:42:46;100642.09;;;13.27;100.00
47530;BME280;33272;51.922;7.730;2022-09-25T01:45:21;100643.91;;;13.28;100.00
47530;BME280;33272;51.922;7.730;2022-09-25T01:47:50;100639.44;;;13.26;100.00
47530;BME280;33272;51.922;7.730;2022-09-25T01:50:24;100636.06;;;13.27;100.00
47530;BME280;33272;51.922;7.730;2022-09-25T01:52:56;100636.75;;;13.24;100.00
47530;BME280;33272;51.922;7.730;2022-09-25T01:55:29;100634.88;;;13.21;100.00
47530;BME280;33272;51.922;7.730;2022-09-25T01:58:04;100635.56;;;13.19;100.00
47530;BME280;33272;51.922;7.730;2022-09-25T02:00:40;100641.41;;;13.16;100.00
47530;BME280;33272;51.922;7.730;2022-09-25T02:03:14;100641.34;;;13.15;100.00
47530;BME280;33272;51.922;7.730;2022-09-25T02:05:47;100636.88;;;13.12;100.00
47530;BME280;33272;51.922;7.730;2022-09-25T02:08:20;100640.22;;;13.11;100.00
47530;BME280;33272;51.922;7.730;2022-09-25T02:10:52;100641.44;;;13.03;100.00
47530;BME280;33272;51.922;7.730;2022-09-25T02:13:24;100646.66;;;13.05;100.00
47530;BME280;33272;51.922;7.730;2022-09-25T02:15:56;100638.88;;;13.03;100.00
47530;BME280;33272;51.922;7.730;2022-09-25T02:18:27;100643.03;;;13.01;100.00
47530;BME280;33272;51.922;7.730;2022-09-25T02:21:16;100637.69;;;12.98;100.00
47530;BME280;33272;51.922;7.730;2022-09-25T02:23:52;100647.09;;;12.97;100.00
47530;BME280;33272;51.922;7.730;2022-09-25T02:26:27;100644.63;;;12.99;100.00
47530;BME280;33272;51.922;7.730;2022-09-25T02:28:55;100643.81;;;13.00;100.00
47530;BME280;33272;51.922;7.730;2022-09-25T02:31:27;100652.34;;;12.99;100.00
47530;BME280;33272;51.922;7.730;2022-09-25T02:33:56;100650.34;;;12.95;100.00
47530;BME280;33272;51.922;7.730;2022-09-25T02:36:23;100656.16;;;12.92;100.00
47530;BME280;33272;51.922;7.730;2022-09-25T02:38:51;100662.03;;;12.90;100.00
47530;BME280;33272;51.922;7.730;2022-09-25T02:41:35;100655.31;;;12.79;100.00
47530;BME280;33272;51.922;7.730;2022-09-25T02:44:15;100655.72;;;12.71;100.00
47530;BME280;33272;51.922;7.730;2022-09-25T02:46:56;100650.00;;;12.62;100.00
47530;BME280;33272;51.922;7.730;2022-09-25T02:49:37;100642.69;;;12.55;100.00
47530;BME280;33272;51.922;7.730;2022-09-25T02:52:10;100656.09;;;12.51;100.00
47530;BME280;33272;51.922;7.730;2022-09-25T02:54:44;100657.38;;;12.44;100.00
47530;BME280;33272;51.922;7.730;2022-09-25T02:57:24;100648.41;;;12.38;100.00
47530;BME280;33272;51.922;7.730;2022-09-25T02:59:59;100649.09;;;12.35;100.00
47530;BME280;33272;51.922;7.730;2022-09-25T03:02:33;100652.16;;;12.29;100.00
47530;BME280;33272;51.922;7.730;2022-09-25T03:05:03;100652.16;;;12.29;100.00
47530;BME280;33272;51.922;7.730;2022-09-25T03:07:31;100650.16;;;12.25;100.00
47530;BME280;33272;51.922;7.730;2022-09-25T03:10:19;100653.53;;;12.24;100.00
47530;BME280;33272;51.922;7.730;2022-09-25T03:12:46;100649.88;;;12.21;100.00
47530;BME280;33272;51.922;7.730;2022-09-25T03:15:13;100653.53;;;12.24;100.00
47530;BME280;33272;51.922;7.730;2022-09-25T03:17:42;100660.53;;;12.27;100.00
47530;BME280;33272;51.922;7.730;2022-09-25T03:20:09;100654.41;;;12.25;100.00
47530;BME280;33272;51.922;7.730;2022-09-25T03:22:36;100653.63;;;12.26;100.00
47530;BME280;33272;51.922;7.730;2022-09-25T03:25:05;100655.50;;;12.28;100.00
47530;BME280;33272;51.922;7.730;2022-09-25T03:27:32;100658.06;;;12.28;100.00
47530;BME280;33272;51.922;7.730;2022-09-25T03:29:59;100647.72;;;12.27;100.00
47530;BME280;33272;51.922;7.730;2022-09-25T03:32:27;100651.25;;;12.29;100.00
47530;BME280;33272;51.922;7.730;2022-09-25T03:34:55;100649.69;;;12.31;100.00
47530;BME280;33272;51.922;7.730;2022-09-25T03:37:23;100642.78;;;12.30;100.00
47530;BME280;33272;51.922;7.730;2022-09-25T03:39:50;100640.09;;;12.28;100.00
47530;BME280;33272;51.922;7.730;2022-09-25T03:42:17;100643.47;;;12.27;100.00
47530;BME280;33272;51.922;7.730;2022-09-25T03:44:44;100635.84;;;12.29;100.00
47530;BME280;33272;51.922;7.730;2022-09-25T03:47:11;100635.84;;;12.29;100.00
47530;BME280;33272;51.922;7.730;2022-09-25T03:49:38;100634.97;;;12.28;100.00
47530;BME280;33272;51.922;7.730;2022-09-25T03:52:07;100634.19;;;12.29;100.00
47530;BME280;33272;51.922;7.730;2022-09-25T03:54:37;100626.31;;;12.26;100.00
47530;BME280;33272;51.922;7.730;2022-09-25T03:57:04;100626.97;;;12.24;100.00
47530;BME280;33272;51.922;7.730;2022-09-25T03:59:32;100623.34;;;12.20;100.00
47530;BME280;33272;51.922;7.730;2022-09-25T04:01:59;100621.53;;;12.19;100.00
47530;BME280;33272;51.922;7.730;2022-09-25T04:04:27;100624.91;;;12.18;100.00
47530;BME280;33272;51.922;7.730;2022-09-25T04:06:54;100624.78;;;12.17;100.00
47530;BME280;33272;51.922;7.730;2022-09-25T04:09:23;100619.56;;;12.15;100.00
47530;BME280;33272;51.922;7.730;2022-09-25T04:11:50;100627.06;;;12.12;100.00
47530;BME280;33272;51.922;7.730;2022-09-25T04:14:16;100624.09;;;12.06;100.00
47530;BME280;33272;51.922;7.730;2022-09-25T04:16:44;100617.06;;;12.03;100.00
47530;BME280;33272;51.922;7.730;2022-09-25T04:19:11;100622.00;;;12.00;100.00
47530;BME280;33272;51.922;7.730;2022-09-25T04:21:40;100619.22;;;11.97;100.00
47530;BME280;33272;51.922;7.730;2022-09-25T04:24:07;100618.94;;;11.93;100.00
47530;BME280;33272;51.922;7.730;2022-09-25T04:26:53;100624.88;;;11.92;100.00
47530;BME280;33272;51.922;7.730;2022-09-25T04:29:20;100621.09;;;11.87;100.00
47530;BME280;33272;51.922;7.730;2022-09-25T04:31:49;100620.84;;;11.83;100.00
47530;BME280;33272;51.922;7.730;2022-09-25T04:34:30;100630.09;;;11.81;100.00
47530;BME280;33272;51.922;7.730;2022-09-25T04:36:57;100630.69;;;11.77;100.00
47530;BME280;33272;51.922;7.730;2022-09-25T04:39:24;100622.91;;;11.76;100.00
47530;BME280;33272;51.922;7.730;2022-09-25T04:41:52;100618.34;;;11.72;100.00
47530;BME280;33272;51.922;7.730;2022-09-25T04:44:20;100626.50;;;11.66;100.00
47530;BME280;33272;51.922;7.730;2022-09-25T04:46:46;100621.97;;;11.62;100.00
47530;BME280;33272;51.922;7.730;2022-09-25T04:49:14;100623.34;;;11.57;100.00
47530;BME280;33272;51.922;7.730;2022-09-25T04:51:41;100625.50;;;11.51;100.00
47530;BME280;33272;51.922;7.730;2022-09-25T04:54:07;100631.97;;;11.46;100.00
47530;BME280;33272;51.922;7.730;2022-09-25T04:56:34;100638.44;;;11.41;100.00
47530;BME280;33272;51.922;7.730;2022-09-25T04:59:03;100631.34;;;11.36;100.00
47530;BME280;33272;51.922;7.730;2022-09-25T05:01:30;100631.78;;;11.31;100.00
47530;BME280;33272;51.922;7.730;2022-09-25T05:03:57;100628.81;;;11.25;100.00
47530;BME280;33272;51.922;7.730;2022-09-25T05:06:24;100635.97;;;11.17;100.00
47530;BME280;33272;51.922;7.730;2022-09-25T05:08:51;100633.66;;;11.08;100.00
47530;BME280;33272;51.922;7.730;2022-09-25T05:11:18;100636.66;;;11.03;100.00
47530;BME280;33272;51.922;7.730;2022-09-25T05:13:49;100640.59;;;10.98;100.00
47530;BME280;33272;51.922;7.730;2022-09-25T05:16:18;100634.91;;;10.90;100.00
47530;BME280;33272;51.922;7.730;2022-09-25T05:18:45;100636.06;;;10.82;100.00
47530;BME280;33272;51.922;7.730;2022-09-25T05:21:12;100632.94;;;10.74;100.00
47530;BME280;33272;51.922;7.730;2022-09-25T05:23:39;100632.41;;;10.66;100.00
47530;BME280;33272;51.922;7.730;2022-09-25T05:26:06;100629.50;;;10.62;100.00
47530;BME280;33272;51.922;7.730;2022-09-25T05:28:35;100634.97;;;10.55;100.00
47530;BME280;33272;51.922;7.730;2022-09-25T05:31:03;100630.41;;;10.51;100.00
47530;BME280;33272;51.922;7.730;2022-09-25T05:33:33;100632.53;;;10.44;100.00
47530;BME280;33272;51.922;7.730;2022-09-25T05:36:01;100637.28;;;10.40;100.00
47530;BME280;33272;51.922;7.730;2022-09-25T05:38:30;100631.84;;;10.35;100.00
47530;BME280;33272;51.922;7.730;2022-09-25T05:41:00;100631.84;;;10.35;100.00
47530;BME280;33272;51.922;7.730;2022-09-25T05:43:29;100628.75;;;10.28;100.00
47530;BME280;33272;51.922;7.730;2022-09-25T05:45:57;100624.56;;;10.18;100.00
47530;BME280;33272;51.922;7.730;2022-09-25T05:48:24;100629.44;;;10.15;100.00
47530;BME280;33272;51.922;7.730;2022-09-25T05:50:53;100627.59;;;10.12;100.00
47530;BME280;33272;51.922;7.730;2022-09-25T05:53:21;100633.22;;;10.08;100.00
47530;BME280;33272;51.922;7.730;2022-09-25T05:55:49;100627.13;;;10.06;100.00
47530;BME280;33272;51.922;7.730;2022-09-25T05:58:16;100631.88;;;10.02;100.00
47530;BME280;33272;51.922;7.730;2022-09-25T06:00:43;100629.09;;;9.98;100.00
47530;BME280;33272;51.922;7.730;2022-09-25T06:03:10;100627.88;;;9.93;100.00
47530;BME280;33272;51.922;7.730;2022-09-25T06:05:38;100624.31;;;9.91;100.00
47530;BME280;33272;51.922;7.730;2022-09-25T06:08:07;100625.19;;;9.92;100.00
47530;BME280;33272;51.922;7.730;2022-09-25T06:10:34;100626.97;;;9.93;100.00
47530;BME280;33272;51.922;7.730;2022-09-25T06:13:03;100623.88;;;9.97;100.00
47530;BME280;33272;51.922;7.730;2022-09-25T06:15:35;100621.56;;;10.00;100.00
47530;BME280;33272;51.922;7.730;2022-09-25T06:18:02;100625.22;;;10.04;100.00
47530;BME280;33272;51.922;7.730;2022-09-25T06:20:30;100626.56;;;10.10;100.00
47530;BME280;33272;51.922;7.730;2022-09-25T06:22:58;100627.13;;;10.18;100.00
47530;BME280;33272;51.922;7.730;2022-09-25T06:25:30;100633.47;;;10.23;100.00
47530;BME280;33272;51.922;7.730;2022-09-25T06:27:59;100633.31;;;10.32;100.00
47530;BME280;33272;51.922;7.730;2022-09-25T06:30:28;100635.66;;;10.40;100.00
47530;BME280;33272;51.922;7.730;2022-09-25T06:32:59;100633.72;;;10.50;100.00
47530;BME280;33272;51.922;7.730;2022-09-25T06:35:27;100637.75;;;10.58;100.00
47530;BME280;33272;51.922;7.730;2022-09-25T06:37:56;100641.63;;;10.64;100.00
47530;BME280;33272;51.922;7.730;2022-09-25T06:40:26;100638.94;;;10.75;100.00
47530;BME280;33272;51.922;7.730;2022-09-25T06:42:55;100638.63;;;10.82;100.00
47530;BME280;33272;51.922;7.730;2022-09-25T06:45:22;100639.94;;;10.88;100.00
47530;BME280;33272;51.922;7.730;2022-09-25T06:47:50;100638.78;;;10.97;100.00
47530;BME280;33272;51.922;7.730;2022-09-25T06:50:16;100639.44;;;11.06;100.00
47530;BME280;33272;51.922;7.730;2022-09-25T06:52:43;100643.44;;;11.14;100.00
47530;BME280;33272;51.922;7.730;2022-09-25T06:55:10;100641.53;;;11.23;100.00
47530;BME280;33272;51.922;7.730;2022-09-25T06:57:39;100641.06;;;11.29;100.00
47530;BME280;33272;51.922;7.730;2022-09-25T07:00:07;100643.25;;;11.36;100.00
47530;BME280;33272;51.922;7.730;2022-09-25T07:02:35;100646.34;;;11.44;100.00
47530;BME280;33272;51.922;7.730;2022-09-25T07:05:19;100648.78;;;11.54;100.00
47530;BME280;33272;51.922;7.730;2022-09-25T07:07:46;100644.94;;;11.60;100.00
47530;BME280;33272;51.922;7.730;2022-09-25T07:10:13;100641.13;;;11.67;100.00
47530;BME280;33272;51.922;7.730;2022-09-25T07:12:42;100650.22;;;11.75;100.00
47530;BME280;33272;51.922;7.730;2022-09-25T07:15:09;100636.91;;;11.81;100.00
47530;BME280;33272;51.922;7.730;2022-09-25T07:17:36;100641.03;;;11.91;100.00
47530;BME280;33272;51.922;7.730;2022-09-25T07:20:07;100647.44;;;11.97;100.00
47530;BME280;33272;51.922;7.730;2022-09-25T07:22:37;100647.09;;;12.04;100.00
47530;BME280;33272;51.922;7.730;2022-09-25T07:25:06;100642.44;;;12.12;100.00
47530;BME280;33272;51.922;7.730;2022-09-25T07:27:33;100647.00;;;12.16;100.00
47530;BME280;33272;51.922;7.730;2022-09-25T07:30:03;100647.78;;;12.15;100.00
47530;BME280;33272;51.922;7.730;2022-09-25T07:32:31;100643.06;;;12.21;100.00
47530;BME280;33272;51.922;7.730;2022-09-25T07:34:58;100655.69;;;12.32;100.00
47530;BME280;33272;51.922;7.730;2022-09-25T07:37:24;100657.88;;;12.39;100.00
47530;BME280;33272;51.922;7.730;2022-09-25T07:39:51;100657.50;;;12.46;100.00
47530;BME280;33272;51.922;7.730;2022-09-25T07:42:18;100656.91;;;12.50;100.00
47530;BME280;33272;51.922;7.730;2022-09-25T07:44:45;100653.94;;;12.57;100.00
47530;BME280;33272;51.922;7.730;2022-09-25T07:47:14;100648.44;;;12.64;100.00
47530;BME280;33272;51.922;7.730;2022-09-25T07:49:41;100656.81;;;12.75;100.00
47530;BME280;33272;51.922;7.730;2022-09-25T07:52:10;100659.94;;;12.84;100.00
47530;BME280;33272;51.922;7.730;2022-09-25T07:54:38;100666.44;;;12.92;100.00
47530;BME280;33272;51.922;7.730;2022-09-25T07:57:05;100657.66;;;13.02;100.00
47530;BME280;33272;51.922;7.730;2022-09-25T07:59:32;100655.56;;;13.10;100.00
47530;BME280;33272;51.922;7.730;2022-09-25T08:01:59;100667.72;;;13.12;100.00
47530;BME280;33272;51.922;7.730;2022-09-25T08:04:29;100665.81;;;13.23;100.00
47530;BME280;33272;51.922;7.730;2022-09-25T08:06:57;100670.66;;;13.32;100.00
47530;BME280;33272;51.922;7.730;2022-09-25T08:09:24;100666.09;;;13.41;100.00
47530;BME280;33272;51.922;7.730;2022-09-25T08:11:51;100674.00;;;13.44;100.00
47530;BME280;33272;51.922;7.730;2022-09-25T08:14:18;100669.22;;;13.50;100.00
47530;BME280;33272;51.922;7.730;2022-09-25T08:16:46;100668.81;;;13.57;100.00
47530;BME280;33272;51.922;7.730;2022-09-25T08:19:13;100658.63;;;13.59;100.00
47530;BME280;33272;51.922;7.730;2022-09-25T08:21:44;100658.06;;;13.64;100.00
47530;BME280;33272;51.922;7.730;2022-09-25T08:24:11;100658.63;;;13.74;100.00
47530;BME280;33272;51.922;7.730;2022-09-25T08:26:38;100655.03;;;13.85;100.00
47530;BME280;33272;51.922;7.730;2022-09-25T08:29:05;100653.06;;;13.96;100.00
47530;BME280;33272;51.922;7.730;2022-09-25T08:31:33;100654.50;;;14.05;100.00
47530;BME280;33272;51.922;7.730;2022-09-25T08:34:00;100654.84;;;14.11;100.00
47530;BME280;33272;51.922;7.730;2022-09-25T08:36:27;100657.00;;;14.19;100.00
47530;BME280;33272;51.922;7.730;2022-09-25T08:38:55;100656.63;;;14.27;100.00
47530;BME280;33272;51.922;7.730;2022-09-25T08:41:26;100652.66;;;14.32;100.00
47530;BME280;33272;51.922;7.730;2022-09-25T08:43:58;100659.91;;;14.40;100.00
47530;BME280;33272;51.922;7.730;2022-09-25T08:46:38;100658.56;;;14.46;100.00
47530;BME280;33272;51.922;7.730;2022-09-25T08:49:28;100662.69;;;14.57;100.00
47530;BME280;33272;51.922;7.730;2022-09-25T08:52:02;100656.03;;;14.61;100.00
47530;BME280;33272;51.922;7.730;2022-09-25T08:54:34;100665.16;;;14.71;100.00
47530;BME280;33272;51.922;7.730;2022-09-25T08:57:10;100664.44;;;14.73;100.00
47530;BME280;33272;51.922;7.730;2022-09-25T08:59:41;100657.53;;;14.72;100.00
47530;BME280;33272;51.922;7.730;2022-09-25T09:02:15;100661.41;;;14.80;100.00
47530;BME280;33272;51.922;7.730;2022-09-25T09:04:46;100665.31;;;14.89;100.00
47530;BME280;33272;51.922;7.730;2022-09-25T09:07:22;100660.72;;;14.99;100.00
47530;BME280;33272;51.922;7.730;2022-09-25T09:09:58;100662.59;;;15.02;100.00
47530;BME280;33272;51.922;7.730;2022-09-25T09:12:34;100658.00;;;15.13;100.00
47530;BME280;33272;51.922;7.730;2022-09-25T09:15:16;100653.63;;;15.26;100.00
47530;BME280;33272;51.922;7.730;2022-09-25T09:17:48;100657.72;;;15.39;100.00
47530;BME280;33272;51.922;7.730;2022-09-25T09:20:20;100660.81;;;15.48;100.00
47530;BME280;33272;51.922;7.730;2022-09-25T09:22:50;100656.03;;;15.56;99.12
47530;BME280;33272;51.922;7.730;2022-09-25T09:25:26;100658.47;;;15.69;99.50
47530;BME280;33272;51.922;7.730;2022-09-25T09:28:23;100660.09;;;15.67;99.38
47530;BME280;33272;51.922;7.730;2022-09-25T09:31:04;100657.09;;;15.76;99.95
47530;BME280;33272;51.922;7.730;2022-09-25T09:33:46;100657.34;;;15.81;100.00
47530;BME280;33272;51.922;7.730;2022-09-25T09:36:28;100654.50;;;15.92;99.71
47530;BME280;33272;51.922;7.730;2022-09-25T09:39:05;100649.88;;;16.03;99.00
47530;BME280;33272;51.922;7.730;2022-09-25T09:41:51;100659.66;;;16.27;99.04
47530;BME280;33272;51.922;7.730;2022-09-25T09:44:40;100657.25;;;16.48;97.07
47530;BME280;33272;51.922;7.730;2022-09-25T09:47:26;100658.00;;;16.63;92.35
47530;BME280;33272;51.922;7.730;2022-09-25T09:50:02;100659.50;;;16.76;96.10
47530;BME280;33272;51.922;7.730;2022-09-25T09:52:35;100658.81;;;16.80;96.09
47530;BME280;33272;51.922;7.730;2022-09-25T09:55:18;100660.53;;;16.61;94.03
47530;BME280;33272;51.922;7.730;2022-09-25T09:57:51;100658.50;;;16.38;95.85
47530;BME280;33272;51.922;7.730;2022-09-25T10:00:20;100659.75;;;16.28;96.77
47530;BME280;33272;51.922;7.730;2022-09-25T10:02:53;100653.97;;;16.16;96.00
47530;BME280;33272;51.922;7.730;2022-09-25T10:05:25;100655.31;;;15.91;96.21
47530;BME280;33272;51.922;7.730;2022-09-25T10:07:53;100645.09;;;15.77;96.97
47530;BME280;33272;51.922;7.730;2022-09-25T10:10:34;100648.97;;;15.68;97.11
47530;BME280;33272;51.922;7.730;2022-09-25T10:13:15;100648.41;;;15.74;97.45
47530;BME280;33272;51.922;7.730;2022-09-25T10:15:49;100648.53;;;15.93;97.30
47530;BME280;33272;51.922;7.730;2022-09-25T10:18:18;100635.97;;;16.17;95.94
47530;BME280;33272;51.922;7.730;2022-09-25T10:20:50;100637.41;;;16.47;95.12
47530;BME280;33272;51.922;7.730;2022-09-25T10:23:34;100641.41;;;16.76;93.59
47530;BME280;33272;51.922;7.730;2022-09-25T10:26:09;100648.97;;;17.08;93.14
47530;BME280;33272;51.922;7.730;2022-09-25T10:28:49;100650.22;;;17.17;91.17
47530;BME280;33272;51.922;7.730;2022-09-25T10:31:18;100638.63;;;17.08;90.66
47530;BME280;33272;51.922;7.730;2022-09-25T10:34:02;100645.53;;;16.90;88.42
47530;BME280;33272;51.922;7.730;2022-09-25T10:36:42;100640.34;;;16.72;89.94
47530;BME280;33272;51.922;7.730;2022-09-25T10:39:28;100642.63;;;16.66;89.34
47530;BME280;33272;51.922;7.730;2022-09-25T10:41:56;100639.47;;;16.72;90.31
47530;BME280;33272;51.922;7.730;2022-09-25T10:44:31;100632.38;;;16.85;89.90
47530;BME280;33272;51.922;7.730;2022-09-25T10:47:30;100636.94;;;17.09;87.62
47530;BME280;33272;51.922;7.730;2022-09-25T10:50:18;100625.50;;;17.23;87.00
47530;BME280;33272;51.922;7.730;2022-09-25T10:52:48;100628.66;;;16.98;85.57
47530;BME280;33272;51.922;7.730;2022-09-25T10:55:23;100634.88;;;17.02;86.42
47530;BME280;33272;51.922;7.730;2022-09-25T10:58:05;100640.13;;;17.03;87.32
47530;BME280;33272;51.922;7.730;2022-09-25T11:00:42;100638.16;;;17.17;87.73
47530;BME280;33272;51.922;7.730;2022-09-25T11:03:22;100630.91;;;17.47;88.11
47530;BME280;33272;51.922;7.730;2022-09-25T11:05:55;100638.31;;;17.59;85.14
47530;BME280;33272;51.922;7.730;2022-09-25T11:08:27;100642.47;;;17.55;84.89
47530;BME280;33272;51.922;7.730;2022-09-25T11:10:57;100636.22;;;17.31;84.69
47530;BME280;33272;51.922;7.730;2022-09-25T11:13:28;100637.25;;;16.97;84.88
47530;BME280;33272;51.922;7.730;2022-09-25T11:16:02;100634.63;;;16.78;85.49
47530;BME280;33272;51.922;7.730;2022-09-25T11:18:39;100636.81;;;16.52;82.04
47530;BME280;33272;51.922;7.730;2022-09-25T11:21:19;100625.88;;;16.58;85.83
47530;BME280;33272;51.922;7.730;2022-09-25T11:24:08;100626.97;;;16.63;81.01
47530;BME280;33272;51.922;7.730;2022-09-25T11:26:43;100622.44;;;16.75;85.12
47530;BME280;33272;51.922;7.730;2022-09-25T11:29:19;100617.84;;;16.87;81.90
47530;BME280;33272;51.922;7.730;2022-09-25T11:31:55;100613.28;;;17.01;83.76
47530;BME280;33272;51.922;7.730;2022-09-25T11:34:39;100613.25;;;17.19;82.46
47530;BME280;33272;51.922;7.730;2022-09-25T11:37:18;100616.59;;;17.36;82.55
47530;BME280;33272;51.922;7.730;2022-09-25T11:39:51;100615.84;;;17.38;82.05
47530;BME280;33272;51.922;7.730;2022-09-25T11:42:44;100607.69;;;17.29;78.65
47530;BME280;33272;51.922;7.730;2022-09-25T11:45:19;100607.94;;;17.35;81.90
47530;BME280;33272;51.922;7.730;2022-09-25T11:47:55;100608.13;;;17.40;76.91
47530;BME280;33272;51.922;7.730;2022-09-25T11:50:29;100608.53;;;17.49;80.26
47530;BME280;33272;51.922;7.730;2022-09-25T11:53:09;100608.63;;;17.51;77.77
47530;BME280;33272;51.922;7.730;2022-09-25T11:56:02;100605.91;;;17.48;75.17
47530;BME280;33272;51.922;7.730;2022-09-25T11:58:58;100600.88;;;17.31;72.10
47530;BME280;33272;51.922;7.730;2022-09-25T12:01:34;100600.50;;;17.43;76.92
47530;BME280;33272;51.922;7.730;2022-09-25T12:04:36;100596.00;;;17.58;74.76
47530;BME280;33272;51.922;7.730;2022-09-25T12:07:42;100593.94;;;17.71;71.38
47530;BME280;33272;51.922;7.730;2022-09-25T12:10:31;100581.13;;;17.74;68.82
47530;BME280;33272;51.922;7.730;2022-09-25T12:13:07;100590.28;;;17.85;74.90
47530;BME280;33272;51.922;7.730;2022-09-25T12:15:51;100590.84;;;17.99;73.34
47530;BME280;33272;51.922;7.730;2022-09-25T12:18:42;100584.97;;;18.03;68.51
47530;BME280;33272;51.922;7.730;2022-09-25T12:21:19;100577.59;;;18.12;69.66
47530;BME280;33272;51.922;7.730;2022-09-25T12:23:53;100578.53;;;18.14;73.09
47530;BME280;33272;51.922;7.730;2022-09-25T12:26:29;100575.78;;;18.10;72.89
47530;BME280;33272;51.922;7.730;2022-09-25T12:29:23;100573.50;;;18.17;70.53
47530;BME280;33272;51.922;7.730;2022-09-25T12:32:02;100565.09;;;18.23;70.14
47530;BME280;33272;51.922;7.730;2022-09-25T12:34:52;100560.41;;;18.35;67.48
47530;BME280;33272;51.922;7.730;2022-09-25T12:37:32;100553.25;;;18.29;64.15
47530;BME280;33272;51.922;7.730;2022-09-25T12:40:13;100554.09;;;18.28;70.73
47530;BME280;33272;51.922;7.730;2022-09-25T12:42:45;100550.94;;;18.15;68.99
47530;BME280;33272;51.922;7.730;2022-09-25T12:45:20;100551.06;;;18.18;68.80
47530;BME280;33272;51.922;7.730;2022-09-25T12:48:04;100548.53;;;18.19;64.09
47530;BME280;33272;51.922;7.730;2022-09-25T12:50:38;100547.72;;;18.20;66.12
47530;BME280;33272;51.922;7.730;2022-09-25T12:53:28;100545.28;;;18.25;65.36
47530;BME280;33272;51.922;7.730;2022-09-25T12:56:02;100542.66;;;18.23;63.46
47530;BME280;33272;51.922;7.730;2022-09-25T12:58:48;100539.22;;;18.24;61.54
47530;BME280;33272;51.922;7.730;2022-09-25T13:01:22;100541.91;;;18.26;62.55
47530;BME280;33272;51.922;7.730;2022-09-25T13:04:03;100541.81;;;18.24;58.04
47530;BME280;33272;51.922;7.730;2022-09-25T13:06:43;100534.34;;;18.10;59.93
47530;BME280;33272;51.922;7.730;2022-09-25T13:09:25;100534.81;;;18.22;62.66
47530;BME280;33272;51.922;7.730;2022-09-25T13:11:58;100534.88;;;18.23;61.61
47530;BME280;33272;51.922;7.730;2022-09-25T13:14:31;100524.28;;;18.17;62.27